sensor_id;sensor_type;location;lat;lon;timestamp;P1;durP1;ratioP1;P2;durP2;ratioP2
28009;SDS011;15334;49.494;8.410;2023-07-02T00:00:29;4.60;;;1.33;;
28009;SDS011;15334;49.494;8.410;2023-07-02T00:02:58;2.88;;;1.58;;
28009;SDS011;15334;49.494;8.410;2023-07-02T00:05:28;5.72;;;1.55;;
28009;SDS011;15334;49.494;8.410;2023-07-02T00:07:56;3.03;;;1.63;;
28009;SDS011;15334;49.494;8.410;2023-07-02T00:10:25;3.72;;;1.50;;
28009;SDS011;15334;49.494;8.410;2023-07-02T00:12:53;4.50;;;1.67;;
28009;SDS011;15334;49.494;8.410;2023-07-02T00:15:21;4.47;;;1.70;;
28009;SDS011;15334;49.494;8.410;2023-07-02T00:17:49;3.75;;;1.50;;
28009;SDS011;15334;49.494;8.410;2023-07-02T00:20:17;2.85;;;1.40;;
28009;SDS011;15334;49.494;8.410;2023-07-02T00:22:46;3.00;;;1.52;;
28009;SDS011;15334;49.494;8.410;2023-07-02T00:25:16;2.55;;;1.52;;
28009;SDS011;15334;49.494;8.410;2023-07-02T00:27:45;2.40;;;1.52;;
28009;SDS011;15334;49.494;8.410;2023-07-02T00:30:13;2.85;;;1.70;;
28009;SDS011;15334;49.494;8.410;2023-07-02T00:32:41;4.07;;;1.88;;
28009;SDS011;15334;49.494;8.410;2023-07-02T00:35:09;4.07;;;1.75;;
28009;SDS011;15334;49.494;8.410;2023-07-02T00:37:37;3.00;;;1.48;;
28009;SDS011;15334;49.494;8.410;2023-07-02T00:40:06;4.18;;;1.40;;
28009;SDS011;15334;49.494;8.410;2023-07-02T00:42:34;6.70;;;1.80;;
28009;SDS011;15334;49.494;8.410;2023-07-02T00:45:04;5.20;;;1.73;;
28009;SDS011;15334;49.494;8.410;2023-07-02T00:47:34;3.15;;;1.67;;
28009;SDS011;15334;49.494;8.410;2023-07-02T00:50:03;2.38;;;1.45;;
28009;SDS011;15334;49.494;8.410;2023-07-02T00:52:32;4.93;;;1.80;;
28009;SDS011;15334;49.494;8.410;2023-07-02T00:55:00;3.17;;;1.35;;
28009;SDS011;15334;49.494;8.410;2023-07-02T00:57:28;2.42;;;1.40;;
28009;SDS011;15334;49.494;8.410;2023-07-02T00:59:56;4.07;;;1.88;;
28009;SDS011;15334;49.494;8.410;2023-07-02T01:02:28;5.07;;;1.48;;
28009;SDS011;15334;49.494;8.410;2023-07-02T01:04:57;2.83;;;1.52;;
28009;SDS011;15334;49.494;8.410;2023-07-02T01:07:27;5.10;;;1.77;;
28009;SDS011;15334;49.494;8.410;2023-07-02T01:09:56;5.80;;;2.00;;
28009;SDS011;15334;49.494;8.410;2023-07-02T01:12:24;5.75;;;1.85;;
28009;SDS011;15334;49.494;8.410;2023-07-02T01:14:53;3.92;;;1.58;;
28009;SDS011;15334;49.494;8.410;2023-07-02T01:17:29;3.13;;;1.48;;
28009;SDS011;15334;49.494;8.410;2023-07-02T01:20:10;5.13;;;1.85;;
28009;SDS011;15334;49.494;8.410;2023-07-02T01:22:39;5.00;;;1.60;;
28009;SDS011;15334;49.494;8.410;2023-07-02T01:25:08;3.10;;;1.60;;
28009;SDS011;15334;49.494;8.410;2023-07-02T01:27:36;5.68;;;1.90;;
28009;SDS011;15334;49.494;8.410;2023-07-02T01:30:05;4.22;;;1.60;;
28009;SDS011;15334;49.494;8.410;2023-07-02T01:32:35;4.50;;;1.63;;
28009;SDS011;15334;49.494;8.410;2023-07-02T01:35:03;4.68;;;1.80;;
28009;SDS011;15334;49.494;8.410;2023-07-02T01:37:33;4.18;;;1.80;;
28009;SDS011;15334;49.494;8.410;2023-07-02T01:40:04;2.55;;;1.38;;
28009;SDS011;15334;49.494;8.410;2023-07-02T01:42:34;4.15;;;1.30;;
28009;SDS011;15334;49.494;8.410;2023-07-02T01:45:02;3.55;;;2.00;;
28009;SDS011;15334;49.494;8.410;2023-07-02T01:47:31;3.50;;;1.35;;
28009;SDS011;15334;49.494;8.410;2023-07-02T01:49:59;4.00;;;1.58;;
28009;SDS011;15334;49.494;8.410;2023-07-02T01:52:27;4.72;;;1.70;;
28009;SDS011;15334;49.494;8.410;2023-07-02T01:55:01;6.18;;;1.80;;
28009;SDS011;15334;49.494;8.410;2023-07-02T01:57:29;5.65;;;1.55;;
28009;SDS011;15334;49.494;8.410;2023-07-02T01:59:57;4.28;;;2.28;;
28009;SDS011;15334;49.494;8.410;2023-07-02T02:02:25;3.70;;;1.52;;
28009;SDS011;15334;49.494;8.410;2023-07-02T02:04:53;2.80;;;1.70;;
28009;SDS011;15334;49.494;8.410;2023-07-02T02:07:23;6.35;;;1.42;;
28009;SDS011;15334;49.494;8.410;2023-07-02T02:09:52;3.70;;;1.63;;
28009;SDS011;15334;49.494;8.410;2023-07-02T02:12:21;3.75;;;1.50;;
28009;SDS011;15334;49.494;8.410;2023-07-02T02:14:49;4.32;;;1.80;;
28009;SDS011;15334;49.494;8.410;2023-07-02T02:17:17;6.85;;;2.00;;
28009;SDS011;15334;49.494;8.410;2023-07-02T02:19:45;5.28;;;2.05;;
28009;SDS011;15334;49.494;8.410;2023-07-02T02:22:13;7.63;;;2.28;;
28009;SDS011;15334;49.494;8.410;2023-07-02T02:24:41;6.68;;;1.98;;
28009;SDS011;15334;49.494;8.410;2023-07-02T02:27:09;6.90;;;2.40;;
28009;SDS011;15334;49.494;8.410;2023-07-02T02:29:38;5.40;;;2.50;;
28009;SDS011;15334;49.494;8.410;2023-07-02T02:32:06;5.47;;;3.15;;
28009;SDS011;15334;49.494;8.410;2023-07-02T02:34:34;9.75;;;2.25;;
28009;SDS011;15334;49.494;8.410;2023-07-02T02:37:02;6.40;;;3.03;;
28009;SDS011;15334;49.494;8.410;2023-07-02T02:39:30;12.05;;;3.08;;
28009;SDS011;15334;49.494;8.410;2023-07-02T02:41:58;6.47;;;2.85;;
28009;SDS011;15334;49.494;8.410;2023-07-02T02:44:26;7.25;;;2.78;;
28009;SDS011;15334;49.494;8.410;2023-07-02T02:46:57;7.68;;;2.92;;
28009;SDS011;15334;49.494;8.410;2023-07-02T02:49:26;9.25;;;2.60;;
28009;SDS011;15334;49.494;8.410;2023-07-02T02:51:54;8.10;;;2.88;;
28009;SDS011;15334;49.494;8.410;2023-07-02T02:54:22;8.60;;;3.38;;
28009;SDS011;15334;49.494;8.410;2023-07-02T02:56:50;6.72;;;2.60;;
28009;SDS011;15334;49.494;8.410;2023-07-02T02:59:18;6.15;;;2.95;;
28009;SDS011;15334;49.494;8.410;2023-07-02T03:01:46;9.73;;;2.70;;
28009;SDS011;15334;49.494;8.410;2023-07-02T03:04:16;9.02;;;4.28;;
28009;SDS011;15334;49.494;8.410;2023-07-02T03:06:44;7.60;;;3.03;;
28009;SDS011;15334;49.494;8.410;2023-07-02T03:09:12;9.20;;;3.20;;
28009;SDS011;15334;49.494;8.410;2023-07-02T03:11:40;8.05;;;3.03;;
28009;SDS011;15334;49.494;8.410;2023-07-02T03:14:08;7.85;;;3.03;;
28009;SDS011;15334;49.494;8.410;2023-07-02T03:16:36;9.70;;;3.15;;
28009;SDS011;15334;49.494;8.410;2023-07-02T03:19:04;9.18;;;3.55;;
28009;SDS011;15334;49.494;8.410;2023-07-02T03:21:33;11.48;;;3.47;;
28009;SDS011;15334;49.494;8.410;2023-07-02T03:24:01;7.13;;;3.22;;
28009;SDS011;15334;49.494;8.410;2023-07-02T03:26:29;9.70;;;3.17;;
28009;SDS011;15334;49.494;8.410;2023-07-02T03:28:57;10.13;;;3.58;;
28009;SDS011;15334;49.494;8.410;2023-07-02T03:31:25;10.35;;;3.40;;
28009;SDS011;15334;49.494;8.410;2023-07-02T03:33:53;10.80;;;3.63;;
28009;SDS011;15334;49.494;8.410;2023-07-02T03:36:21;9.93;;;3.33;;
28009;SDS011;15334;49.494;8.410;2023-07-02T03:38:50;9.50;;;3.53;;
28009;SDS011;15334;49.494;8.410;2023-07-02T03:41:18;9.05;;;3.40;;
28009;SDS011;15334;49.494;8.410;2023-07-02T03:43:46;9.68;;;3.80;;
28009;SDS011;15334;49.494;8.410;2023-07-02T03:46:14;13.55;;;3.70;;
28009;SDS011;15334;49.494;8.410;2023-07-02T03:48:42;10.00;;;3.42;;
28009;SDS011;15334;49.494;8.410;2023-07-02T03:51:10;8.45;;;3.25;;
28009;SDS011;15334;49.494;8.410;2023-07-02T03:53:40;13.55;;;3.35;;
28009;SDS011;15334;49.494;8.410;2023-07-02T03:56:09;10.10;;;4.15;;
28009;SDS011;15334;49.494;8.410;2023-07-02T03:58:39;7.38;;;3.13;;
28009;SDS011;15334;49.494;8.410;2023-07-02T04:01:07;9.65;;;3.00;;
28009;SDS011;15334;49.494;8.410;2023-07-02T04:03:35;9.68;;;3.70;;
28009;SDS011;15334;49.494;8.410;2023-07-02T04:06:03;13.02;;;3.97;;
28009;SDS011;15334;49.494;8.410;2023-07-02T04:08:32;11.05;;;3.72;;
28009;SDS011;15334;49.494;8.410;2023-07-02T04:11:00;7.95;;;3.75;;
28009;SDS011;15334;49.494;8.410;2023-07-02T04:13:29;5.20;;;2.85;;
28009;SDS011;15334;49.494;8.410;2023-07-02T04:15:58;8.60;;;4.07;;
28009;SDS011;15334;49.494;8.410;2023-07-02T04:18:26;7.65;;;3.90;;
28009;SDS011;15334;49.494;8.410;2023-07-02T04:20:55;8.35;;;3.70;;
28009;SDS011;15334;49.494;8.410;2023-07-02T04:23:25;6.95;;;3.20;;
28009;SDS011;15334;49.494;8.410;2023-07-02T04:25:58;8.07;;;3.28;;
28009;SDS011;15334;49.494;8.410;2023-07-02T04:28:47;10.77;;;3.40;;
28009;SDS011;15334;49.494;8.410;2023-07-02T04:31:15;10.55;;;3.30;;
28009;SDS011;15334;49.494;8.410;2023-07-02T04:33:45;9.00;;;3.33;;
28009;SDS011;15334;49.494;8.410;2023-07-02T04:36:13;7.50;;;3.28;;
28009;SDS011;15334;49.494;8.410;2023-07-02T04:38:41;12.90;;;3.78;;
28009;SDS011;15334;49.494;8.410;2023-07-02T04:41:09;9.82;;;3.88;;
28009;SDS011;15334;49.494;8.410;2023-07-02T04:43:37;13.27;;;3.85;;
28009;SDS011;15334;49.494;8.410;2023-07-02T04:46:06;11.30;;;4.07;;
28009;SDS011;15334;49.494;8.410;2023-07-02T04:48:38;8.85;;;3.58;;
28009;SDS011;15334;49.494;8.410;2023-07-02T04:51:06;11.77;;;3.80;;
28009;SDS011;15334;49.494;8.410;2023-07-02T04:53:34;11.70;;;4.25;;
28009;SDS011;15334;49.494;8.410;2023-07-02T04:56:03;8.27;;;4.20;;
28009;SDS011;15334;49.494;8.410;2023-07-02T04:58:34;11.68;;;4.20;;
28009;SDS011;15334;49.494;8.410;2023-07-02T05:01:02;12.30;;;4.20;;
28009;SDS011;15334;49.494;8.410;2023-07-02T05:03:32;8.45;;;4.05;;
28009;SDS011;15334;49.494;8.410;2023-07-02T05:06:00;11.23;;;4.93;;
28009;SDS011;15334;49.494;8.410;2023-07-02T05:08:28;11.68;;;4.55;;
28009;SDS011;15334;49.494;8.410;2023-07-02T05:10:56;13.15;;;4.75;;
28009;SDS011;15334;49.494;8.410;2023-07-02T05:13:24;13.15;;;4.47;;
28009;SDS011;15334;49.494;8.410;2023-07-02T05:15:52;16.33;;;5.30;;
28009;SDS011;15334;49.494;8.410;2023-07-02T05:18:20;11.07;;;4.22;;
28009;SDS011;15334;49.494;8.410;2023-07-02T05:20:50;12.20;;;5.05;;
28009;SDS011;15334;49.494;8.410;2023-07-02T05:23:18;9.93;;;4.22;;
28009;SDS011;15334;49.494;8.410;2023-07-02T05:25:46;10.43;;;5.15;;
28009;SDS011;15334;49.494;8.410;2023-07-02T05:28:14;13.98;;;5.22;;
28009;SDS011;15334;49.494;8.410;2023-07-02T05:30:53;14.77;;;5.38;;
28009;SDS011;15334;49.494;8.410;2023-07-02T05:33:40;11.00;;;4.40;;
28009;SDS011;15334;49.494;8.410;2023-07-02T05:37:09;13.63;;;5.50;;
28009;SDS011;15334;49.494;8.410;2023-07-02T05:39:37;16.60;;;5.00;;
28009;SDS011;15334;49.494;8.410;2023-07-02T05:42:05;12.70;;;4.93;;
28009;SDS011;15334;49.494;8.410;2023-07-02T05:44:33;12.82;;;5.28;;
28009;SDS011;15334;49.494;8.410;2023-07-02T05:47:02;12.05;;;4.70;;
28009;SDS011;15334;49.494;8.410;2023-07-02T05:49:30;12.20;;;5.00;;
28009;SDS011;15334;49.494;8.410;2023-07-02T05:51:58;11.38;;;5.00;;
28009;SDS011;15334;49.494;8.410;2023-07-02T05:54:27;11.63;;;5.32;;
28009;SDS011;15334;49.494;8.410;2023-07-02T05:56:55;15.65;;;5.30;;
28009;SDS011;15334;49.494;8.410;2023-07-02T05:59:23;12.13;;;5.20;;
28009;SDS011;15334;49.494;8.410;2023-07-02T06:01:51;12.35;;;4.82;;
28009;SDS011;15334;49.494;8.410;2023-07-02T06:04:19;13.82;;;5.15;;
28009;SDS011;15334;49.494;8.410;2023-07-02T06:06:47;12.77;;;5.53;;
28009;SDS011;15334;49.494;8.410;2023-07-02T06:09:15;12.43;;;4.68;;
28009;SDS011;15334;49.494;8.410;2023-07-02T06:11:44;11.65;;;5.20;;
28009;SDS011;15334;49.494;8.410;2023-07-02T06:14:12;14.43;;;5.18;;
28009;SDS011;15334;49.494;8.410;2023-07-02T06:16:40;12.40;;;5.82;;
28009;SDS011;15334;49.494;8.410;2023-07-02T06:19:09;14.75;;;5.70;;
28009;SDS011;15334;49.494;8.410;2023-07-02T06:21:37;13.30;;;5.03;;
28009;SDS011;15334;49.494;8.410;2023-07-02T06:24:05;11.52;;;5.38;;
28009;SDS011;15334;49.494;8.410;2023-07-02T06:26:33;13.40;;;5.22;;
28009;SDS011;15334;49.494;8.410;2023-07-02T06:29:02;21.60;;;6.32;;
28009;SDS011;15334;49.494;8.410;2023-07-02T06:31:30;17.50;;;6.25;;
28009;SDS011;15334;49.494;8.410;2023-07-02T06:33:59;13.80;;;6.38;;
28009;SDS011;15334;49.494;8.410;2023-07-02T06:36:27;13.88;;;6.07;;
28009;SDS011;15334;49.494;8.410;2023-07-02T06:38:55;13.95;;;5.97;;
28009;SDS011;15334;49.494;8.410;2023-07-02T06:41:24;13.75;;;5.47;;
28009;SDS011;15334;49.494;8.410;2023-07-02T06:43:52;14.18;;;6.35;;
28009;SDS011;15334;49.494;8.410;2023-07-02T06:46:21;21.38;;;6.35;;
28009;SDS011;15334;49.494;8.410;2023-07-02T06:48:49;16.27;;;6.82;;
28009;SDS011;15334;49.494;8.410;2023-07-02T06:51:18;19.80;;;6.18;;
28009;SDS011;15334;49.494;8.410;2023-07-02T06:53:47;15.82;;;6.63;;
28009;SDS011;15334;49.494;8.410;2023-07-02T06:56:15;15.75;;;6.68;;
28009;SDS011;15334;49.494;8.410;2023-07-02T06:58:43;12.52;;;5.22;;
28009;SDS011;15334;49.494;8.410;2023-07-02T07:01:11;15.50;;;6.68;;
28009;SDS011;15334;49.494;8.410;2023-07-02T07:03:41;16.88;;;5.82;;
28009;SDS011;15334;49.494;8.410;2023-07-02T07:06:09;17.88;;;6.70;;
28009;SDS011;15334;49.494;8.410;2023-07-02T07:08:37;15.57;;;6.00;;
28009;SDS011;15334;49.494;8.410;2023-07-02T07:11:06;15.20;;;6.20;;
28009;SDS011;15334;49.494;8.410;2023-07-02T07:13:34;16.67;;;6.47;;
28009;SDS011;15334;49.494;8.410;2023-07-02T07:16:02;16.50;;;6.28;;
28009;SDS011;15334;49.494;8.410;2023-07-02T07:18:31;16.75;;;6.75;;
28009;SDS011;15334;49.494;8.410;2023-07-02T07:21:01;15.40;;;7.15;;
28009;SDS011;15334;49.494;8.410;2023-07-02T07:23:29;25.45;;;6.88;;
28009;SDS011;15334;49.494;8.410;2023-07-02T07:25:59;23.42;;;8.13;;
28009;SDS011;15334;49.494;8.410;2023-07-02T07:28:29;17.63;;;7.18;;
28009;SDS011;15334;49.494;8.410;2023-07-02T07:30:57;20.83;;;8.00;;
28009;SDS011;15334;49.494;8.410;2023-07-02T07:33:24;18.55;;;7.82;;
28009;SDS011;15334;49.494;8.410;2023-07-02T07:35:52;23.27;;;8.75;;
28009;SDS011;15334;49.494;8.410;2023-07-02T07:38:22;18.55;;;8.00;;
28009;SDS011;15334;49.494;8.410;2023-07-02T07:40:50;20.05;;;8.18;;
28009;SDS011;15334;49.494;8.410;2023-07-02T07:43:18;19.45;;;8.77;;
28009;SDS011;15334;49.494;8.410;2023-07-02T07:45:46;26.48;;;9.70;;
28009;SDS011;15334;49.494;8.410;2023-07-02T07:48:14;18.48;;;8.50;;
28009;SDS011;15334;49.494;8.410;2023-07-02T07:50:42;18.42;;;8.48;;
28009;SDS011;15334;49.494;8.410;2023-07-02T07:53:10;21.50;;;9.32;;
28009;SDS011;15334;49.494;8.410;2023-07-02T07:55:39;19.02;;;8.30;;
28009;SDS011;15334;49.494;8.410;2023-07-02T07:58:07;24.45;;;8.60;;
28009;SDS011;15334;49.494;8.410;2023-07-02T08:00:35;22.77;;;8.70;;
28009;SDS011;15334;49.494;8.410;2023-07-02T08:03:03;19.83;;;7.65;;
28009;SDS011;15334;49.494;8.410;2023-07-02T08:05:31;19.73;;;8.75;;
28009;SDS011;15334;49.494;8.410;2023-07-02T08:07:59;22.88;;;8.77;;
28009;SDS011;15334;49.494;8.410;2023-07-02T08:10:29;23.25;;;8.95;;
28009;SDS011;15334;49.494;8.410;2023-07-02T08:13:00;18.95;;;8.27;;
28009;SDS011;15334;49.494;8.410;2023-07-02T08:15:30;23.90;;;9.60;;
28009;SDS011;15334;49.494;8.410;2023-07-02T08:18:07;20.75;;;8.75;;
28009;SDS011;15334;49.494;8.410;2023-07-02T08:20:37;21.55;;;8.63;;
28009;SDS011;15334;49.494;8.410;2023-07-02T08:23:05;24.00;;;9.50;;
28009;SDS011;15334;49.494;8.410;2023-07-02T08:25:35;19.27;;;8.10;;
28009;SDS011;15334;49.494;8.410;2023-07-02T08:28:04;18.88;;;8.45;;
28009;SDS011;15334;49.494;8.410;2023-07-02T08:30:32;19.33;;;8.50;;
28009;SDS011;15334;49.494;8.410;2023-07-02T08:33:00;18.27;;;8.82;;
28009;SDS011;15334;49.494;8.410;2023-07-02T08:35:28;15.23;;;7.78;;
28009;SDS011;15334;49.494;8.410;2023-07-02T08:37:56;15.27;;;7.55;;
28009;SDS011;15334;49.494;8.410;2023-07-02T08:40:24;18.13;;;8.32;;
28009;SDS011;15334;49.494;8.410;2023-07-02T08:42:53;18.02;;;8.35;;
28009;SDS011;15334;49.494;8.410;2023-07-02T08:45:23;20.08;;;9.18;;
28009;SDS011;15334;49.494;8.410;2023-07-02T08:47:51;17.13;;;7.72;;
28009;SDS011;15334;49.494;8.410;2023-07-02T08:50:23;20.33;;;8.82;;
28009;SDS011;15334;49.494;8.410;2023-07-02T08:52:53;24.40;;;9.75;;
28009;SDS011;15334;49.494;8.410;2023-07-02T08:55:28;21.92;;;8.45;;
28009;SDS011;15334;49.494;8.410;2023-07-02T08:57:56;17.40;;;8.60;;
28009;SDS011;15334;49.494;8.410;2023-07-02T09:00:28;20.52;;;8.45;;
28009;SDS011;15334;49.494;8.410;2023-07-02T09:02:57;16.38;;;8.52;;
28009;SDS011;15334;49.494;8.410;2023-07-02T09:05:25;21.52;;;9.45;;
28009;SDS011;15334;49.494;8.410;2023-07-02T09:07:53;21.40;;;9.27;;
28009;SDS011;15334;49.494;8.410;2023-07-02T09:10:29;26.90;;;9.57;;
28009;SDS011;15334;49.494;8.410;2023-07-02T09:13:05;19.60;;;8.02;;
28009;SDS011;15334;49.494;8.410;2023-07-02T09:15:41;20.13;;;8.95;;
28009;SDS011;15334;49.494;8.410;2023-07-02T09:18:16;22.27;;;8.68;;
28009;SDS011;15334;49.494;8.410;2023-07-02T09:20:45;18.58;;;8.65;;
28009;SDS011;15334;49.494;8.410;2023-07-02T09:23:16;22.55;;;9.38;;
28009;SDS011;15334;49.494;8.410;2023-07-02T09:25:46;23.75;;;9.30;;
28009;SDS011;15334;49.494;8.410;2023-07-02T09:28:17;20.67;;;8.43;;
28009;SDS011;15334;49.494;8.410;2023-07-02T09:30:58;21.13;;;8.27;;
28009;SDS011;15334;49.494;8.410;2023-07-02T09:33:38;19.38;;;8.07;;
28009;SDS011;15334;49.494;8.410;2023-07-02T09:36:15;20.40;;;8.38;;
28009;SDS011;15334;49.494;8.410;2023-07-02T09:39:07;23.27;;;8.00;;
28009;SDS011;15334;49.494;8.410;2023-07-02T09:41:36;19.35;;;8.30;;
28009;SDS011;15334;49.494;8.410;2023-07-02T09:44:25;20.67;;;8.23;;
28009;SDS011;15334;49.494;8.410;2023-07-02T09:47:12;22.42;;;8.68;;
28009;SDS011;15334;49.494;8.410;2023-07-02T09:50:09;21.42;;;9.25;;
28009;SDS011;15334;49.494;8.410;2023-07-02T09:52:45;21.17;;;9.32;;
28009;SDS011;15334;49.494;8.410;2023-07-02T09:55:16;21.30;;;8.77;;
28009;SDS011;15334;49.494;8.410;2023-07-02T09:57:50;19.38;;;8.77;;
28009;SDS011;15334;49.494;8.410;2023-07-02T10:00:27;18.33;;;8.55;;
28009;SDS011;15334;49.494;8.410;2023-07-02T10:03:03;19.35;;;9.27;;
28009;SDS011;15334;49.494;8.410;2023-07-02T10:05:43;19.03;;;9.07;;
28009;SDS011;15334;49.494;8.410;2023-07-02T10:08:12;21.13;;;9.82;;
28009;SDS011;15334;49.494;8.410;2023-07-02T10:10:40;23.42;;;9.63;;
28009;SDS011;15334;49.494;8.410;2023-07-02T10:13:10;22.15;;;9.32;;
28009;SDS011;15334;49.494;8.410;2023-07-02T10:15:43;22.55;;;9.93;;
28009;SDS011;15334;49.494;8.410;2023-07-02T10:18:15;21.75;;;9.52;;
28009;SDS011;15334;49.494;8.410;2023-07-02T10:20:53;20.35;;;10.15;;
28009;SDS011;15334;49.494;8.410;2023-07-02T10:23:25;23.95;;;10.23;;
28009;SDS011;15334;49.494;8.410;2023-07-02T10:26:09;22.10;;;9.25;;
28009;SDS011;15334;49.494;8.410;2023-07-02T10:28:37;22.67;;;9.95;;
28009;SDS011;15334;49.494;8.410;2023-07-02T10:31:11;23.55;;;10.05;;
28009;SDS011;15334;49.494;8.410;2023-07-02T10:33:46;21.27;;;9.32;;
28009;SDS011;15334;49.494;8.410;2023-07-02T10:36:18;22.00;;;9.23;;
28009;SDS011;15334;49.494;8.410;2023-07-02T10:41:24;21.00;;;8.60;;
28009;SDS011;15334;49.494;8.410;2023-07-02T10:43:54;19.67;;;8.85;;
28009;SDS011;15334;49.494;8.410;2023-07-02T10:46:32;21.23;;;9.80;;
28009;SDS011;15334;49.494;8.410;2023-07-02T10:49:01;20.58;;;9.73;;
28009;SDS011;15334;49.494;8.410;2023-07-02T10:51:29;23.83;;;9.52;;
28009;SDS011;15334;49.494;8.410;2023-07-02T10:53:57;22.73;;;9.07;;
28009;SDS011;15334;49.494;8.410;2023-07-02T10:56:26;24.48;;;10.30;;
28009;SDS011;15334;49.494;8.410;2023-07-02T10:58:54;24.25;;;9.98;;
28009;SDS011;15334;49.494;8.410;2023-07-02T11:01:23;22.48;;;9.20;;
28009;SDS011;15334;49.494;8.410;2023-07-02T11:03:55;21.17;;;9.93;;
28009;SDS011;15334;49.494;8.410;2023-07-02T11:06:26;22.05;;;10.80;;
28009;SDS011;15334;49.494;8.410;2023-07-02T11:08:55;20.80;;;10.38;;
28009;SDS011;15334;49.494;8.410;2023-07-02T11:11:23;20.55;;;9.48;;
28009;SDS011;15334;49.494;8.410;2023-07-02T11:13:52;18.55;;;8.50;;
28009;SDS011;15334;49.494;8.410;2023-07-02T11:16:21;24.05;;;9.27;;
28009;SDS011;15334;49.494;8.410;2023-07-02T11:18:52;22.08;;;9.32;;
28009;SDS011;15334;49.494;8.410;2023-07-02T11:21:21;21.15;;;9.88;;
28009;SDS011;15334;49.494;8.410;2023-07-02T11:23:50;24.50;;;10.68;;
28009;SDS011;15334;49.494;8.410;2023-07-02T11:26:34;21.45;;;9.75;;
28009;SDS011;15334;49.494;8.410;2023-07-02T11:29:02;22.02;;;9.40;;
28009;SDS011;15334;49.494;8.410;2023-07-02T11:31:31;21.67;;;10.48;;
28009;SDS011;15334;49.494;8.410;2023-07-02T11:33:59;20.02;;;9.48;;
28009;SDS011;15334;49.494;8.410;2023-07-02T11:36:27;23.35;;;9.98;;
28009;SDS011;15334;49.494;8.410;2023-07-02T11:38:57;21.63;;;9.63;;
28009;SDS011;15334;49.494;8.410;2023-07-02T11:41:24;21.75;;;8.23;;
28009;SDS011;15334;49.494;8.410;2023-07-02T11:44:03;24.08;;;8.90;;
28009;SDS011;15334;49.494;8.410;2023-07-02T11:46:31;19.25;;;9.05;;
28009;SDS011;15334;49.494;8.410;2023-07-02T11:49:01;22.92;;;10.20;;
28009;SDS011;15334;49.494;8.410;2023-07-02T11:51:30;21.73;;;9.65;;
28009;SDS011;15334;49.494;8.410;2023-07-02T11:54:00;20.42;;;9.25;;
28009;SDS011;15334;49.494;8.410;2023-07-02T11:56:28;21.83;;;9.23;;
28009;SDS011;15334;49.494;8.410;2023-07-02T11:58:56;19.35;;;8.45;;
28009;SDS011;15334;49.494;8.410;2023-07-02T12:01:24;21.17;;;8.63;;
28009;SDS011;15334;49.494;8.410;2023-07-02T12:03:52;23.35;;;8.73;;
28009;SDS011;15334;49.494;8.410;2023-07-02T12:06:20;20.20;;;8.95;;
28009;SDS011;15334;49.494;8.410;2023-07-02T12:08:48;19.75;;;7.90;;
28009;SDS011;15334;49.494;8.410;2023-07-02T12:11:17;16.70;;;8.68;;
28009;SDS011;15334;49.494;8.410;2023-07-02T12:13:45;20.33;;;8.88;;
28009;SDS011;15334;49.494;8.410;2023-07-02T12:16:13;21.73;;;8.85;;
28009;SDS011;15334;49.494;8.410;2023-07-02T12:18:41;17.17;;;8.13;;
28009;SDS011;15334;49.494;8.410;2023-07-02T12:21:09;21.42;;;9.20;;
28009;SDS011;15334;49.494;8.410;2023-07-02T12:23:37;19.48;;;7.90;;
28009;SDS011;15334;49.494;8.410;2023-07-02T12:26:05;19.05;;;8.45;;
28009;SDS011;15334;49.494;8.410;2023-07-02T12:28:34;20.88;;;8.57;;
28009;SDS011;15334;49.494;8.410;2023-07-02T12:31:02;24.58;;;9.77;;
28009;SDS011;15334;49.494;8.410;2023-07-02T12:33:30;18.45;;;8.60;;
28009;SDS011;15334;49.494;8.410;2023-07-02T12:35:58;20.75;;;8.60;;
28009;SDS011;15334;49.494;8.410;2023-07-02T12:38:26;23.05;;;9.40;;
28009;SDS011;15334;49.494;8.410;2023-07-02T12:40:54;17.48;;;8.52;;
28009;SDS011;15334;49.494;8.410;2023-07-02T12:43:22;23.95;;;10.43;;
28009;SDS011;15334;49.494;8.410;2023-07-02T12:45:51;21.52;;;9.48;;
28009;SDS011;15334;49.494;8.410;2023-07-02T12:48:19;21.23;;;8.90;;
28009;SDS011;15334;49.494;8.410;2023-07-02T12:50:54;19.60;;;9.00;;
28009;SDS011;15334;49.494;8.410;2023-07-02T12:53:22;20.02;;;10.10;;
28009;SDS011;15334;49.494;8.410;2023-07-02T12:55:51;21.45;;;8.95;;
28009;SDS011;15334;49.494;8.410;2023-07-02T12:58:19;22.67;;;9.68;;
28009;SDS011;15334;49.494;8.410;2023-07-02T13:00:47;23.58;;;9.75;;
28009;SDS011;15334;49.494;8.410;2023-07-02T13:03:16;17.90;;;9.10;;
28009;SDS011;15334;49.494;8.410;2023-07-02T13:08:15;24.52;;;9.57;;
28009;SDS011;15334;49.494;8.410;2023-07-02T13:10:43;24.33;;;9.90;;
28009;SDS011;15334;49.494;8.410;2023-07-02T13:13:11;22.35;;;9.05;;
28009;SDS011;15334;49.494;8.410;2023-07-02T13:15:48;24.45;;;9.27;;
28009;SDS011;15334;49.494;8.410;2023-07-02T13:18:18;16.70;;;8.73;;
28009;SDS011;15334;49.494;8.410;2023-07-02T13:20:46;22.48;;;9.05;;
28009;SDS011;15334;49.494;8.410;2023-07-02T13:23:14;23.20;;;9.07;;
28009;SDS011;15334;49.494;8.410;2023-07-02T13:25:42;21.02;;;9.70;;
28009;SDS011;15334;49.494;8.410;2023-07-02T13:28:10;19.38;;;9.68;;
28009;SDS011;15334;49.494;8.410;2023-07-02T13:30:38;24.10;;;10.05;;
28009;SDS011;15334;49.494;8.410;2023-07-02T13:33:06;20.35;;;9.02;;
28009;SDS011;15334;49.494;8.410;2023-07-02T13:35:35;25.23;;;9.65;;
28009;SDS011;15334;49.494;8.410;2023-07-02T13:38:09;19.73;;;9.00;;
28009;SDS011;15334;49.494;8.410;2023-07-02T13:40:37;24.00;;;9.85;;
28009;SDS011;15334;49.494;8.410;2023-07-02T13:43:07;18.27;;;8.95;;
28009;SDS011;15334;49.494;8.410;2023-07-02T13:45:35;20.52;;;9.63;;
28009;SDS011;15334;49.494;8.410;2023-07-02T13:48:03;20.98;;;10.13;;
28009;SDS011;15334;49.494;8.410;2023-07-02T13:50:31;22.42;;;10.32;;
28009;SDS011;15334;49.494;8.410;2023-07-02T13:53:01;18.77;;;8.68;;
28009;SDS011;15334;49.494;8.410;2023-07-02T13:55:29;22.45;;;9.45;;
28009;SDS011;15334;49.494;8.410;2023-07-02T13:57:57;20.02;;;9.65;;
28009;SDS011;15334;49.494;8.410;2023-07-02T14:00:28;23.00;;;9.50;;
28009;SDS011;15334;49.494;8.410;2023-07-02T14:02:58;19.80;;;8.80;;
28009;SDS011;15334;49.494;8.410;2023-07-02T14:05:50;16.52;;;7.68;;
28009;SDS011;15334;49.494;8.410;2023-07-02T14:09:46;20.67;;;9.02;;
28009;SDS011;15334;49.494;8.410;2023-07-02T14:12:05;19.07;;;9.03;;
28009;SDS011;15334;49.494;8.410;2023-07-02T14:14:50;19.23;;;9.32;;
28009;SDS011;15334;49.494;8.410;2023-07-02T14:17:19;22.95;;;9.30;;
28009;SDS011;15334;49.494;8.410;2023-07-02T14:19:51;19.90;;;9.65;;
28009;SDS011;15334;49.494;8.410;2023-07-02T14:22:19;20.45;;;9.52;;
28009;SDS011;15334;49.494;8.410;2023-07-02T14:24:47;22.02;;;10.13;;
28009;SDS011;15334;49.494;8.410;2023-07-02T14:27:15;23.92;;;9.00;;
28009;SDS011;15334;49.494;8.410;2023-07-02T14:29:43;21.77;;;9.60;;
28009;SDS011;15334;49.494;8.410;2023-07-02T14:32:13;18.13;;;8.75;;
28009;SDS011;15334;49.494;8.410;2023-07-02T14:34:43;19.35;;;9.25;;
28009;SDS011;15334;49.494;8.410;2023-07-02T14:37:11;21.30;;;9.32;;
28009;SDS011;15334;49.494;8.410;2023-07-02T14:39:39;19.35;;;8.88;;
28009;SDS011;15334;49.494;8.410;2023-07-02T14:42:16;17.00;;;8.95;;
28009;SDS011;15334;49.494;8.410;2023-07-02T14:44:43;17.23;;;9.10;;
28009;SDS011;15334;49.494;8.410;2023-07-02T14:47:11;20.95;;;9.20;;
28009;SDS011;15334;49.494;8.410;2023-07-02T14:49:39;24.50;;;9.13;;
28009;SDS011;15334;49.494;8.410;2023-07-02T14:52:09;21.70;;;9.18;;
28009;SDS011;15334;49.494;8.410;2023-07-02T14:54:38;19.77;;;8.63;;
28009;SDS011;15334;49.494;8.410;2023-07-02T14:57:06;18.52;;;8.38;;
28009;SDS011;15334;49.494;8.410;2023-07-02T14:59:34;20.80;;;9.00;;